createdAt,value
2023-05-01T00:01:52.490Z,100918.43
2023-05-01T00:04:20.535Z,100911.32
2023-05-01T00:06:47.576Z,100919.97
2023-05-01T00:09:14.474Z,100917.89
2023-05-01T00:11:41.397Z,100914.61
2023-05-01T00:14:08.289Z,100923.27
2023-05-01T00:16:36.366Z,100922.09
2023-05-01T00:19:04.877Z,100917.10
2023-05-01T00:21:31.764Z,100911.20
2023-05-01T00:23:58.863Z,100907.85
2023-05-01T00:26:29.987Z,100904.77
2023-05-01T00:28:58.422Z,100914.23
2023-05-01T00:31:26.225Z,100900.35
2023-05-01T00:33:53.423Z,100898.92
2023-05-01T00:36:20.549Z,100906.52
2023-05-01T00:38:47.594Z,100906.10
2023-05-01T00:41:14.614Z,100905.41
2023-05-01T00:43:41.538Z,100906.95
2023-05-01T00:46:08.877Z,100904.24
2023-05-01T00:48:36.241Z,100897.60
2023-05-01T00:51:07.650Z,100899.35
2023-05-01T00:53:34.715Z,100911.47
2023-05-01T00:56:02.125Z,100914.06
2023-05-01T00:58:29.656Z,100907.59
2023-05-01T01:00:57.070Z,100906.86
2023-05-01T01:03:24.042Z,100900.17
2023-05-01T01:06:03.822Z,100892.54
2023-05-01T01:08:39.343Z,100886.48
2023-05-01T01:11:19.900Z,100894.16
2023-05-01T01:13:56.252Z,100883.63
2023-05-01T01:16:46.490Z,100882.31
2023-05-01T01:19:42.029Z,100887.84
2023-05-01T01:22:13.850Z,100886.08
2023-05-01T01:25:15.062Z,100885.34
2023-05-01T01:27:48.591Z,100873.77
2023-05-01T01:30:40.973Z,100873.73
2023-05-01T01:33:42.125Z,100879.17
2023-05-01T01:36:16.028Z,100881.36
2023-05-01T01:38:46.919Z,100879.62
2023-05-01T01:41:21.642Z,100876.38
2023-05-01T01:44:02.313Z,100865.55
2023-05-01T01:46:35.922Z,100873.60
2023-05-01T01:49:09.616Z,100873.39
2023-05-01T01:51:40.862Z,100869.15
2023-05-01T01:54:12.216Z,100876.45
2023-05-01T01:56:42.190Z,100875.80
2023-05-01T01:59:11.334Z,100871.08
2023-05-01T02:01:41.953Z,100866.25
2023-05-01T02:04:11.569Z,100876.05
2023-05-01T02:06:40.632Z,100870.67
2023-05-01T02:09:10.986Z,100871.48
2023-05-01T02:11:39.430Z,100868.08
2023-05-01T02:14:09.347Z,100864.29
2023-05-01T02:16:37.484Z,100866.83
2023-05-01T02:19:05.888Z,100858.34
2023-05-01T02:21:35.880Z,100854.33
2023-05-01T02:24:04.277Z,100853.80
2023-05-01T02:26:36.195Z,100860.05
2023-05-01T02:29:03.233Z,100861.65
2023-05-01T02:31:30.282Z,100851.04
2023-05-01T02:33:57.201Z,100851.31
2023-05-01T02:36:24.113Z,100855.48
2023-05-01T02:38:51.537Z,100857.27
2023-05-01T02:41:22.769Z,100849.89
2023-05-01T02:43:55.484Z,100844.94
2023-05-01T02:46:25.943Z,100845.26
2023-05-01T02:48:55.080Z,100849.13
2023-05-01T02:51:23.756Z,100841.98
2023-05-01T02:53:51.018Z,100839.65
2023-05-01T02:56:20.318Z,100835.57
2023-05-01T02:58:50.749Z,100831.27
2023-05-01T03:01:17.834Z,100825.60
2023-05-01T03:03:44.818Z,100822.31
2023-05-01T03:06:11.836Z,100822.70
2023-05-01T03:08:38.762Z,100825.05
2023-05-01T03:11:07.006Z,100822.08
2023-05-01T03:13:35.043Z,100820.98
2023-05-01T03:16:02.486Z,100822.54
2023-05-01T03:18:30.515Z,100828.76
2023-05-01T03:20:57.405Z,100829.61
2023-05-01T03:23:25.922Z,100824.77
2023-05-01T03:25:52.973Z,100823.18
2023-05-01T03:28:23.713Z,100821.91
2023-05-01T03:30:54.643Z,100823.41
2023-05-01T03:33:22.209Z,100822.58
2023-05-01T03:35:49.479Z,100817.54
2023-05-01T03:38:16.706Z,100818.70
2023-05-01T03:41:13.051Z,100821.67
2023-05-01T03:43:58.689Z,100826.55
2023-05-01T03:46:38.855Z,100827.02
2023-05-01T03:49:07.663Z,100828.52
2023-05-01T03:51:40.978Z,100824.02
2023-05-01T03:54:08.316Z,100827.53
2023-05-01T03:56:49.263Z,100827.89
2023-05-01T03:59:18.387Z,100825.55
2023-05-01T04:01:45.365Z,100830.29
2023-05-01T04:04:12.657Z,100831.89
2023-05-01T04:06:42.180Z,100829.43
2023-05-01T04:09:09.744Z,100829.33
2023-05-01T04:11:36.799Z,100829.05
2023-05-01T04:14:04.278Z,100829.59
2023-05-01T04:16:36.239Z,100826.67
2023-05-01T04:19:03.831Z,100823.39
2023-05-01T04:21:32.265Z,100822.55
2023-05-01T04:23:59.199Z,100826.58
2023-05-01T04:26:29.690Z,100832.45
2023-05-01T04:28:56.782Z,100842.34
2023-05-01T04:31:25.372Z,100843.94
2023-05-01T04:33:53.031Z,100844.95
2023-05-01T04:36:20.275Z,100845.05
2023-05-01T04:38:47.427Z,100847.81
2023-05-01T04:41:14.942Z,100848.98
2023-05-01T04:43:42.041Z,100849.63
2023-05-01T04:46:09.619Z,100850.27
2023-05-01T04:48:36.848Z,100855.56
2023-05-01T04:51:04.508Z,100860.54
2023-05-01T04:53:33.609Z,100860.85
2023-05-01T04:56:01.795Z,100859.68
2023-05-01T04:58:30.789Z,100865.56
2023-05-01T05:01:01.337Z,100866.02
2023-05-01T05:03:28.958Z,100870.91
2023-05-01T05:05:56.319Z,100875.54
2023-05-01T05:08:23.782Z,100875.14
2023-05-01T05:11:02.617Z,100878.00
2023-05-01T05:13:34.252Z,100879.33
2023-05-01T05:16:04.184Z,100880.34
2023-05-01T05:18:31.892Z,100889.90
2023-05-01T05:20:59.800Z,100888.15
2023-05-01T05:23:27.552Z,100888.31
2023-05-01T05:25:54.507Z,100893.50
2023-05-01T05:28:21.521Z,100893.54
2023-05-01T05:30:48.505Z,100894.85
2023-05-01T05:33:17.037Z,100897.27
2023-05-01T05:35:44.119Z,100893.37
2023-05-01T05:38:11.281Z,100892.36
2023-05-01T05:40:39.361Z,100890.19
2023-05-01T05:43:07.011Z,100894.39
2023-05-01T05:45:35.117Z,100896.38
2023-05-01T05:48:03.134Z,100900.38
2023-05-01T05:50:31.636Z,100903.02
2023-05-01T05:52:58.987Z,100901.38
2023-05-01T05:55:26.755Z,100901.27
2023-05-01T05:58:04.163Z,100910.15
2023-05-01T06:00:31.509Z,100908.98
2023-05-01T06:03:01.352Z,100915.95
2023-05-01T06:05:29.846Z,100924.86
2023-05-01T06:07:56.962Z,100931.02
2023-05-01T06:10:24.096Z,100927.15
2023-05-01T06:12:58.299Z,100925.39
2023-05-01T06:15:38.872Z,100924.43
2023-05-01T06:18:06.520Z,100922.88
2023-05-01T06:20:33.582Z,100922.19
2023-05-01T06:23:00.942Z,100923.78
2023-05-01T06:25:51.900Z,100921.39
2023-05-01T06:28:19.829Z,100927.18
2023-05-01T06:30:48.093Z,100930.52
2023-05-01T06:33:15.953Z,100930.34
2023-05-01T06:35:43.767Z,100932.30
2023-05-01T06:38:10.792Z,100932.20
2023-05-01T06:40:38.202Z,100934.00
2023-05-01T06:43:05.562Z,100934.95
2023-05-01T06:45:32.859Z,100936.34
2023-05-01T06:48:00.060Z,100935.40
2023-05-01T06:50:27.447Z,100938.63
2023-05-01T06:52:56.020Z,100940.27
2023-05-01T06:55:23.277Z,100944.06
2023-05-01T06:57:51.388Z,100940.87
2023-05-01T07:00:19.106Z,100948.61
2023-05-01T07:02:46.811Z,100952.34
2023-05-01T07:05:14.018Z,100949.90
2023-05-01T07:07:50.425Z,100947.70
2023-05-01T07:10:25.321Z,100942.83
2023-05-01T07:12:52.987Z,100944.13
2023-05-01T07:15:20.122Z,100945.94
2023-05-01T07:17:47.202Z,100948.11
2023-05-01T07:20:17.030Z,100946.89
2023-05-01T07:22:44.308Z,100951.30
2023-05-01T07:25:11.272Z,100949.02
2023-05-01T07:27:38.244Z,100947.23
2023-05-01T07:30:06.208Z,100953.33
2023-05-01T07:32:33.405Z,100950.41
2023-05-01T07:35:00.498Z,100954.92
2023-05-01T07:37:28.885Z,100957.63
2023-05-01T07:39:57.324Z,100954.98
2023-05-01T07:42:24.487Z,100954.60
2023-05-01T07:44:51.974Z,100953.86
2023-05-01T07:47:19.849Z,100958.20
2023-05-01T07:49:46.779Z,100962.04
2023-05-01T07:52:14.085Z,100961.73
2023-05-01T07:54:41.894Z,100966.56
2023-05-01T07:57:08.822Z,100963.16
2023-05-01T07:59:35.793Z,100963.73
2023-05-01T08:02:04.192Z,100962.44
2023-05-01T08:04:31.652Z,100963.28
2023-05-01T08:06:58.760Z,100958.85
2023-05-01T08:09:26.126Z,100962.51
2023-05-01T08:11:53.098Z,100969.92
2023-05-01T08:14:20.938Z,100972.65
2023-05-01T08:16:48.258Z,100971.14
2023-05-01T08:19:15.421Z,100970.59
2023-05-01T08:21:42.401Z,100971.75
2023-05-01T08:24:10.772Z,100973.27
2023-05-01T08:26:38.022Z,100970.64
2023-05-01T08:29:04.968Z,100971.34
2023-05-01T08:31:31.974Z,100972.29
2023-05-01T08:33:59.426Z,100973.03
2023-05-01T08:36:27.440Z,100971.88
2023-05-01T08:38:54.355Z,100972.59
2023-05-01T08:41:22.582Z,100975.55
2023-05-01T08:43:50.232Z,100974.23
2023-05-01T08:46:26.975Z,100975.66
2023-05-01T08:48:58.169Z,100977.64
2023-05-01T08:51:26.404Z,100975.81
2023-05-01T08:53:56.228Z,100980.60
2023-05-01T08:56:23.885Z,100983.68
2023-05-01T08:58:51.175Z,100973.89
2023-05-01T09:01:20.890Z,100975.65
2023-05-01T09:03:50.098Z,100970.97
2023-05-01T09:06:17.398Z,100968.79
2023-05-01T09:08:44.473Z,100971.71
2023-05-01T09:11:12.366Z,100976.39
2023-05-01T09:13:40.193Z,100975.43
2023-05-01T09:16:10.654Z,100979.50
2023-05-01T09:18:38.593Z,100978.02
2023-05-01T09:21:06.458Z,100975.45
2023-05-01T09:23:35.947Z,100973.83
2023-05-01T09:26:06.061Z,100968.50
2023-05-01T09:28:47.253Z,100967.89
2023-05-01T09:31:26.707Z,100977.30
2023-05-01T09:34:02.542Z,100972.41
2023-05-01T09:36:34.499Z,100974.92
2023-05-01T09:39:02.793Z,100974.23
2023-05-01T09:41:33.157Z,100971.21
2023-05-01T09:44:00.366Z,100969.40
2023-05-01T09:46:27.684Z,100972.83
2023-05-01T09:49:03.311Z,100969.11
2023-05-01T09:51:31.526Z,100971.55
2023-05-01T09:54:05.556Z,100966.60
2023-05-01T09:56:34.405Z,100964.17
2023-05-01T09:59:21.276Z,100960.52
2023-05-01T10:01:50.666Z,100958.00
2023-05-01T10:04:18.306Z,100954.05
2023-05-01T10:06:45.532Z,100952.73
2023-05-01T10:09:27.871Z,100955.59
2023-05-01T10:11:57.886Z,100952.83
2023-05-01T10:14:27.023Z,100950.72
2023-05-01T10:16:54.628Z,100949.48
2023-05-01T10:19:22.276Z,100952.30
2023-05-01T10:21:50.095Z,100955.40
2023-05-01T10:24:17.498Z,100952.42
2023-05-01T10:26:45.098Z,100947.33
2023-05-01T10:29:16.566Z,100942.36
2023-05-01T10:31:43.886Z,100940.83
2023-05-01T10:34:17.029Z,100944.39
2023-05-01T10:36:51.099Z,100936.88
2023-05-01T10:39:35.202Z,100945.60
2023-05-01T10:42:11.470Z,100949.07
2023-05-01T10:44:38.775Z,100947.00
2023-05-01T10:47:34.958Z,100946.69
2023-05-01T10:50:17.899Z,100944.78
2023-05-01T10:53:10.140Z,100942.02
2023-05-01T10:55:45.310Z,100942.66
2023-05-01T10:58:14.153Z,100946.22
2023-05-01T11:00:41.478Z,100942.61
2023-05-01T11:03:23.720Z,100951.05
2023-05-01T11:06:00.217Z,100953.40
2023-05-01T11:08:38.611Z,100958.11
2023-05-01T11:11:27.237Z,100957.27
2023-05-01T11:14:08.472Z,100959.18
2023-05-01T11:16:39.134Z,100951.10
2023-05-01T11:19:08.061Z,100947.43
2023-05-01T11:21:37.046Z,100944.00
2023-05-01T11:24:05.155Z,100944.64
2023-05-01T11:26:33.570Z,100942.25
2023-05-01T11:29:02.206Z,100946.23
2023-05-01T11:31:36.422Z,100947.26
2023-05-01T11:34:06.909Z,100952.61
2023-05-01T11:36:50.889Z,100947.69
2023-05-01T11:39:19.280Z,100950.41
2023-05-01T11:41:47.034Z,100949.89
2023-05-01T11:44:18.939Z,100949.80
2023-05-01T11:46:46.244Z,100953.17
2023-05-01T11:49:13.188Z,100962.05
2023-05-01T11:51:40.258Z,100960.52
2023-05-01T11:54:15.936Z,100959.23
2023-05-01T11:56:49.912Z,100957.91
2023-05-01T11:59:17.455Z,100950.16
2023-05-01T12:01:47.326Z,100947.24
2023-05-01T12:04:24.684Z,100951.08
2023-05-01T12:06:53.376Z,100947.49
2023-05-01T12:09:22.653Z,100945.03
2023-05-01T12:11:53.132Z,100948.19
2023-05-01T12:14:21.817Z,100947.17
2023-05-01T12:16:49.643Z,100945.95
2023-05-01T12:19:17.698Z,100947.13
2023-05-01T12:21:46.588Z,100949.79
2023-05-01T12:24:16.779Z,100947.98
2023-05-01T12:26:45.368Z,100947.58
2023-05-01T12:29:12.762Z,100942.69
2023-05-01T12:31:59.586Z,100947.09
2023-05-01T12:34:31.423Z,100946.72
2023-05-01T12:36:58.299Z,100944.12
2023-05-01T12:39:26.868Z,100939.48
2023-05-01T12:41:54.896Z,100941.17
2023-05-01T12:44:22.877Z,100939.05
2023-05-01T12:46:57.050Z,100935.30
2023-05-01T12:49:24.814Z,100931.05
2023-05-01T12:51:56.693Z,100932.59
2023-05-01T12:54:24.688Z,100926.66
2023-05-01T12:56:55.316Z,100931.38
2023-05-01T12:59:25.845Z,100930.20
2023-05-01T13:02:04.231Z,100926.06
2023-05-01T13:04:32.360Z,100923.60
2023-05-01T13:07:00.244Z,100914.62
2023-05-01T13:09:32.606Z,100911.28
2023-05-01T13:12:07.925Z,100915.81
2023-05-01T13:14:42.658Z,100913.38
2023-05-01T13:17:12.246Z,100908.86
2023-05-01T13:19:39.890Z,100902.38
2023-05-01T13:22:07.078Z,100901.61
2023-05-01T13:24:46.433Z,100902.58
2023-05-01T13:27:13.549Z,100901.40
2023-05-01T13:29:44.993Z,100902.91
2023-05-01T13:32:12.520Z,100905.68
2023-05-01T13:34:42.884Z,100909.20
2023-05-01T13:37:14.353Z,100913.89
2023-05-01T13:39:43.430Z,100914.43
2023-05-01T13:42:25.868Z,100913.15
2023-05-01T13:44:55.138Z,100908.73
2023-05-01T13:47:27.849Z,100905.92
2023-05-01T13:49:55.899Z,100903.11
2023-05-01T13:52:23.656Z,100904.38
2023-05-01T13:54:56.168Z,100900.56
2023-05-01T13:57:23.602Z,100897.48
2023-05-01T13:59:50.732Z,100894.98
2023-05-01T14:02:27.312Z,100892.10
2023-05-01T14:04:56.112Z,100902.59
2023-05-01T14:07:26.091Z,100902.16
2023-05-01T14:09:56.325Z,100905.80
2023-05-01T14:12:33.302Z,100897.89
2023-05-01T14:15:01.395Z,100891.55
2023-05-01T14:17:34.910Z,100887.85
2023-05-01T14:20:05.113Z,100885.69
2023-05-01T14:22:43.979Z,100880.95
2023-05-01T14:25:39.051Z,100875.18
2023-05-01T14:28:09.974Z,100878.31
2023-05-01T14:30:39.260Z,100889.26
2023-05-01T14:33:14.763Z,100891.00
2023-05-01T14:35:54.678Z,100897.96
2023-05-01T14:38:25.842Z,100900.98
2023-05-01T14:40:53.475Z,100908.80
2023-05-01T14:43:24.775Z,100905.39
2023-05-01T14:45:52.497Z,100904.35
2023-05-01T14:48:24.746Z,100908.39
2023-05-01T14:50:55.162Z,100916.10
2023-05-01T14:53:23.780Z,100910.30
2023-05-01T14:55:53.158Z,100914.66
2023-05-01T14:58:21.754Z,100913.98
2023-05-01T15:00:49.950Z,100912.02
2023-05-01T15:03:17.779Z,100908.83
2023-05-01T15:05:46.979Z,100908.50
2023-05-01T15:08:14.922Z,100912.55
2023-05-01T15:10:46.934Z,100909.73
2023-05-01T15:13:14.292Z,100908.23
2023-05-01T15:15:41.886Z,100909.24
2023-05-01T15:18:13.140Z,100913.23
2023-05-01T15:20:41.404Z,100914.94
2023-05-01T15:23:09.192Z,100915.89
2023-05-01T15:25:37.543Z,100919.23
2023-05-01T15:28:08.764Z,100920.46
2023-05-01T15:30:39.718Z,100916.95
2023-05-01T15:33:16.077Z,100915.98
2023-05-01T15:35:48.644Z,100909.05
2023-05-01T15:38:21.811Z,100907.11
2023-05-01T15:40:52.664Z,100900.20
2023-05-01T15:43:20.022Z,100894.79
2023-05-01T15:45:50.767Z,100890.02
2023-05-01T15:48:18.381Z,100887.02
2023-05-01T15:50:47.426Z,100884.33
2023-05-01T15:53:17.471Z,100886.52
2023-05-01T15:55:45.076Z,100885.68
2023-05-01T15:58:14.172Z,100881.39
2023-05-01T16:00:41.402Z,100877.02
2023-05-01T16:03:08.895Z,100884.30
2023-05-01T16:05:37.445Z,100884.14
2023-05-01T16:08:07.782Z,100875.70
2023-05-01T16:10:38.583Z,100879.10
2023-05-01T16:13:08.684Z,100885.75
2023-05-01T16:15:39.511Z,100890.48
2023-05-01T16:18:08.122Z,100885.77
2023-05-01T16:20:41.571Z,100889.88
2023-05-01T16:23:09.071Z,100895.01
2023-05-01T16:25:36.484Z,100890.23
2023-05-01T16:28:07.810Z,100891.98
2023-05-01T16:30:34.843Z,100896.44
2023-05-01T16:33:03.500Z,100896.52
2023-05-01T16:35:30.591Z,100900.05
2023-05-01T16:38:00.030Z,100902.55
2023-05-01T16:40:27.050Z,100899.80
2023-05-01T16:42:55.117Z,100901.82
2023-05-01T16:45:22.363Z,100902.45
2023-05-01T16:47:50.003Z,100897.19
2023-05-01T16:50:20.154Z,100894.38
2023-05-01T16:52:47.611Z,100900.96
2023-05-01T16:55:15.061Z,100900.90
2023-05-01T16:57:44.573Z,100898.94
2023-05-01T17:00:12.738Z,100895.05
2023-05-01T17:02:40.730Z,100893.66
2023-05-01T17:05:09.219Z,100896.64
2023-05-01T17:07:36.234Z,100889.90
2023-05-01T17:10:04.492Z,100890.54
2023-05-01T17:12:31.766Z,100894.89
2023-05-01T17:14:58.708Z,100898.69
2023-05-01T17:17:26.407Z,100898.07
2023-05-01T17:19:56.055Z,100897.96
2023-05-01T17:22:25.187Z,100899.88
2023-05-01T17:24:53.349Z,100900.30
2023-05-01T17:27:20.405Z,100899.19
2023-05-01T17:29:47.651Z,100909.11
2023-05-01T17:32:20.259Z,100909.27
2023-05-01T17:34:59.063Z,100908.04
2023-05-01T17:37:26.200Z,100910.38
2023-05-01T17:39:53.254Z,100910.66
2023-05-01T17:42:20.502Z,100903.96
2023-05-01T17:44:47.914Z,100906.58
2023-05-01T17:47:15.534Z,100907.58
2023-05-01T17:49:45.195Z,100904.52
2023-05-01T17:52:12.541Z,100908.95
2023-05-01T17:54:39.866Z,100911.00
2023-05-01T17:57:08.525Z,100910.36
2023-05-01T17:59:35.864Z,100909.98
2023-05-01T18:02:04.398Z,100912.91
2023-05-01T18:04:32.549Z,100914.98
2023-05-01T18:07:00.905Z,100919.20
2023-05-01T18:09:28.166Z,100922.22
2023-05-01T18:11:55.201Z,100920.74
2023-05-01T18:14:22.155Z,100927.38
2023-05-01T18:16:49.148Z,100934.49
2023-05-01T18:19:16.146Z,100936.30
2023-05-01T18:21:43.100Z,100943.27
2023-05-01T18:24:14.454Z,100941.98
2023-05-01T18:26:41.411Z,100946.07
2023-05-01T18:29:09.925Z,100955.31
2023-05-01T18:31:38.370Z,100957.28
2023-05-01T18:34:07.342Z,100958.57
2023-05-01T18:36:34.391Z,100956.48
2023-05-01T18:39:02.152Z,100955.33
2023-05-01T18:41:29.307Z,100953.88
2023-05-01T18:43:58.497Z,100951.00
2023-05-01T18:46:26.966Z,100949.36
2023-05-01T18:48:54.174Z,100955.63
2023-05-01T18:51:21.797Z,100962.75
2023-05-01T18:53:48.864Z,100960.26
2023-05-01T18:56:19.603Z,100957.02
2023-05-01T18:58:49.286Z,100968.05
2023-05-01T19:01:16.575Z,100976.35
2023-05-01T19:03:43.692Z,100977.89
2023-05-01T19:06:12.124Z,100975.88
2023-05-01T19:08:39.418Z,100978.74
2023-05-01T19:11:06.470Z,100978.42
2023-05-01T19:13:33.718Z,100988.77
2023-05-01T19:16:01.020Z,100991.93
2023-05-01T19:18:28.125Z,100997.73
2023-05-01T19:20:56.782Z,101000.16
2023-05-01T19:23:25.397Z,101004.48
2023-05-01T19:25:52.430Z,100999.80
2023-05-01T19:28:20.436Z,100994.41
2023-05-01T19:30:47.407Z,100991.92
2023-05-01T19:33:14.585Z,100986.67
2023-05-01T19:35:44.206Z,100984.29
2023-05-01T19:38:11.156Z,100987.05
2023-05-01T19:40:39.899Z,100994.16
2023-05-01T19:43:09.240Z,100999.84
2023-05-01T19:45:36.602Z,101010.80
2023-05-01T19:48:03.809Z,101009.56
2023-05-01T19:50:33.614Z,101016.42
2023-05-01T19:53:01.118Z,101018.66
2023-05-01T19:55:28.699Z,101018.49
2023-05-01T19:57:56.245Z,101016.37
2023-05-01T20:00:23.597Z,101015.46
2023-05-01T20:02:50.683Z,101019.33
2023-05-01T20:05:18.235Z,101015.88
2023-05-01T20:07:45.554Z,101013.86
2023-05-01T20:10:12.603Z,101011.33
2023-05-01T20:12:39.755Z,101002.88
2023-05-01T20:15:07.638Z,100995.70
2023-05-01T20:17:35.681Z,100990.62
2023-05-01T20:20:03.358Z,100983.23
2023-05-01T20:22:30.403Z,100984.38
2023-05-01T20:24:59.656Z,100987.73
2023-05-01T20:27:27.580Z,100988.83
2023-05-01T20:29:54.622Z,100989.36
2023-05-01T20:32:21.676Z,100988.56
2023-05-01T20:34:48.600Z,100991.02
2023-05-01T20:37:18.108Z,100995.33
2023-05-01T20:39:44.976Z,100997.88
2023-05-01T20:42:11.940Z,100993.09
2023-05-01T20:44:40.483Z,100993.00
2023-05-01T20:47:11.901Z,100999.84
2023-05-01T20:49:39.410Z,101002.75
2023-05-01T20:52:09.460Z,101002.13
2023-05-01T20:54:38.716Z,101005.58
2023-05-01T20:57:09.272Z,101004.40
2023-05-01T20:59:39.660Z,101010.20
2023-05-01T21:02:07.512Z,101016.04
2023-05-01T21:04:34.682Z,101017.05
2023-05-01T21:07:01.634Z,101020.48
2023-05-01T21:09:29.178Z,101022.16
2023-05-01T21:11:56.280Z,101020.98
2023-05-01T21:14:23.219Z,101027.00
2023-05-01T21:16:50.212Z,101027.83
2023-05-01T21:19:17.176Z,101022.95
2023-05-01T21:21:44.216Z,101025.75
2023-05-01T21:24:23.228Z,101025.34
2023-05-01T21:26:50.720Z,101019.61
2023-05-01T21:29:18.877Z,101022.64
2023-05-01T21:31:45.983Z,101027.58
2023-05-01T21:34:17.511Z,101033.11
2023-05-01T21:36:45.298Z,101031.84
2023-05-01T21:39:14.950Z,101030.98
2023-05-01T21:41:42.205Z,101027.32
2023-05-01T21:44:09.626Z,101022.91
2023-05-01T21:46:37.666Z,101023.11
2023-05-01T21:49:04.776Z,101021.53
2023-05-01T21:51:34.799Z,101029.23
2023-05-01T21:54:02.505Z,101033.97
2023-05-01T21:56:29.915Z,101032.26
2023-05-01T21:59:05.564Z,101033.66
2023-05-01T22:01:32.629Z,101027.17
2023-05-01T22:04:00.233Z,101028.13
2023-05-01T22:06:28.510Z,101025.14
2023-05-01T22:08:59.041Z,101025.20
2023-05-01T22:11:29.410Z,101025.79
2023-05-01T22:14:00.031Z,101025.15
2023-05-01T22:16:27.460Z,101021.09
2023-05-01T22:18:54.845Z,101014.35
2023-05-01T22:21:23.332Z,101011.99
2023-05-01T22:23:50.148Z,101003.50
2023-05-01T22:26:17.224Z,100998.21
2023-05-01T22:28:46.562Z,100997.02
2023-05-01T22:31:14.277Z,100993.78
2023-05-01T22:33:41.546Z,100989.39
2023-05-01T22:36:10.840Z,100988.37
2023-05-01T22:38:37.880Z,100986.73
2023-05-01T22:41:06.765Z,100986.41
2023-05-01T22:43:35.254Z,100984.70
2023-05-01T22:46:02.930Z,100981.98
2023-05-01T22:48:29.865Z,100982.63
2023-05-01T22:50:56.830Z,100979.77
2023-05-01T22:53:24.003Z,100982.09
2023-05-01T22:55:51.036Z,100976.63
2023-05-01T22:58:18.059Z,100974.14
2023-05-01T23:00:45.011Z,100969.20
2023-05-01T23:03:12.391Z,100971.48
2023-05-01T23:05:39.393Z,100971.60
2023-05-01T23:08:06.655Z,100967.99
2023-05-01T23:10:33.995Z,100968.84
2023-05-01T23:13:01.673Z,100964.97
2023-05-01T23:15:28.531Z,100961.35
2023-05-01T23:17:56.423Z,100961.30
2023-05-01T23:20:24.655Z,100957.58
2023-05-01T23:22:51.944Z,100953.96
2023-05-01T23:25:28.520Z,100951.66
2023-05-01T23:27:56.908Z,100949.09
2023-05-01T23:30:23.968Z,100944.44
2023-05-01T23:32:51.356Z,100947.52
2023-05-01T23:35:23.897Z,100942.67
2023-05-01T23:37:53.029Z,100941.95
2023-05-01T23:40:20.057Z,100941.40
2023-05-01T23:42:47.466Z,100941.04
2023-05-01T23:45:14.490Z,100946.27
2023-05-01T23:47:41.429Z,100944.36
2023-05-01T23:50:08.937Z,100934.64
2023-05-01T23:52:36.464Z,100929.78
2023-05-01T23:55:03.526Z,100924.07
2023-05-01T23:57:30.422Z,100922.69
2023-05-01T23:59:57.864Z,100922.75
